createdAt,value
2019-03-06T00:00:19.825Z,4.91
2019-03-06T00:01:19.783Z,4.89
2019-03-06T00:02:19.812Z,4.92
2019-03-06T00:03:19.883Z,4.95
2019-03-06T00:04:20.081Z,4.95
2019-03-06T00:05:19.749Z,4.95
2019-03-06T00:06:19.773Z,5.01
2019-03-06T00:07:19.718Z,4.98
2019-03-06T00:08:19.721Z,4.96
2019-03-06T00:09:19.812Z,4.92
2019-03-06T00:10:19.695Z,5.04
2019-03-06T00:11:20.029Z,4.98
2019-03-06T00:12:19.683Z,4.94
2019-03-06T00:13:19.691Z,5.01
2019-03-06T00:14:19.667Z,4.95
2019-03-06T00:15:19.783Z,4.92
2019-03-06T00:16:19.620Z,5.02
2019-03-06T00:17:19.618Z,5.01
2019-03-06T00:18:19.899Z,4.94
2019-03-06T00:19:19.609Z,5.04
2019-03-06T00:20:19.603Z,5.04
2019-03-06T00:21:19.673Z,5.04
2019-03-06T00:22:19.581Z,5.09
2019-03-06T00:23:19.549Z,5.05
2019-03-06T00:24:20.143Z,5.04
2019-03-06T00:25:19.861Z,5.02
2019-03-06T00:26:19.667Z,4.99
2019-03-06T00:27:19.602Z,5.13
2019-03-06T00:28:19.510Z,5.10
2019-03-06T00:29:19.510Z,5.13
2019-03-06T00:30:19.518Z,5.07
2019-03-06T00:31:19.473Z,5.10
2019-03-06T00:32:19.776Z,5.13
2019-03-06T00:33:19.909Z,5.25
2019-03-06T00:34:19.554Z,5.12
2019-03-06T00:35:19.461Z,5.05
2019-03-06T00:36:19.673Z,5.01
2019-03-06T00:37:19.418Z,4.96
2019-03-06T00:38:19.393Z,4.92
2019-03-06T00:39:19.796Z,4.76
2019-03-06T00:40:19.377Z,4.72
2019-03-06T00:41:19.376Z,4.70
2019-03-06T00:42:19.379Z,4.80
2019-03-06T00:43:19.352Z,4.76
2019-03-06T00:44:19.366Z,4.69
2019-03-06T00:45:19.417Z,4.75
2019-03-06T00:46:19.331Z,4.76
2019-03-06T00:47:19.321Z,4.69
2019-03-06T00:48:19.319Z,4.73
2019-03-06T00:49:19.294Z,4.70
2019-03-06T00:50:19.292Z,4.61
2019-03-06T00:51:19.458Z,4.73
2019-03-06T00:52:19.592Z,4.75
2019-03-06T00:53:19.252Z,4.76
2019-03-06T00:54:19.230Z,4.79
2019-03-06T00:55:19.228Z,4.76
2019-03-06T00:56:19.235Z,4.86
2019-03-06T00:57:19.308Z,4.89
2019-03-06T00:58:19.503Z,4.88
2019-03-06T00:59:19.172Z,4.88
2019-03-06T01:00:19.178Z,4.80
2019-03-06T01:01:19.158Z,4.91
2019-03-06T01:02:19.172Z,4.91
2019-03-06T01:03:19.254Z,4.86
2019-03-06T01:04:19.161Z,4.83
2019-03-06T01:05:19.952Z,4.88
2019-03-06T01:06:19.113Z,4.91
2019-03-06T01:07:19.107Z,4.89
2019-03-06T01:08:19.075Z,4.77
2019-03-06T01:09:19.231Z,4.70
2019-03-06T01:10:19.366Z,4.70
2019-03-06T01:11:19.112Z,4.73
2019-03-06T01:12:19.038Z,4.72
2019-03-06T01:13:19.024Z,4.69
2019-03-06T01:14:19.016Z,4.72
2019-03-06T01:15:19.585Z,4.65
2019-03-06T01:16:19.010Z,4.59
2019-03-06T01:17:19.297Z,4.62
2019-03-06T01:18:18.992Z,4.59
2019-03-06T01:19:18.973Z,4.54
2019-03-06T01:20:18.976Z,4.51
2019-03-06T01:21:19.008Z,4.46
2019-03-06T01:22:18.945Z,4.42
2019-03-06T01:23:18.932Z,4.37
2019-03-06T01:24:19.248Z,4.34
2019-03-06T01:25:18.912Z,4.42
2019-03-06T01:26:18.890Z,4.33
2019-03-06T01:27:19.194Z,4.34
2019-03-06T01:28:18.871Z,4.28
2019-03-06T01:29:18.869Z,4.33
2019-03-06T01:30:18.856Z,4.33
2019-03-06T01:31:19.172Z,4.34
2019-03-06T01:32:18.839Z,4.34
2019-03-06T01:33:18.848Z,4.28
2019-03-06T01:34:18.843Z,4.40
2019-03-06T01:35:18.811Z,4.29
2019-03-06T01:36:18.788Z,4.26
2019-03-06T01:37:18.777Z,4.26
2019-03-06T01:38:19.072Z,4.25
2019-03-06T01:39:18.791Z,4.29
2019-03-06T01:40:18.752Z,4.24
2019-03-06T01:41:18.789Z,4.34
2019-03-06T01:42:18.722Z,4.19
2019-03-06T01:43:18.713Z,4.24
2019-03-06T01:44:18.722Z,4.18
2019-03-06T01:45:19.043Z,4.19
2019-03-06T01:46:18.697Z,4.24
2019-03-06T01:47:18.679Z,4.24
2019-03-06T01:48:18.664Z,4.21
2019-03-06T01:49:18.668Z,4.24
2019-03-06T01:50:18.683Z,4.21
2019-03-06T01:51:18.721Z,4.16
2019-03-06T01:52:18.926Z,4.18
2019-03-06T01:53:18.607Z,4.21
2019-03-06T01:54:18.635Z,4.15
2019-03-06T01:55:18.601Z,4.18
2019-03-06T01:56:18.592Z,4.15
2019-03-06T01:57:18.612Z,4.22
2019-03-06T01:58:18.587Z,4.16
2019-03-06T01:59:18.899Z,4.25
2019-03-06T02:00:18.540Z,4.32
2019-03-06T02:01:18.530Z,4.18
2019-03-06T02:02:18.527Z,4.21
2019-03-06T02:03:19.432Z,4.19
2019-03-06T02:04:18.519Z,4.24
2019-03-06T02:05:18.537Z,4.25
2019-03-06T02:06:19.903Z,4.21
2019-03-06T02:07:19.571Z,4.21
2019-03-06T02:08:18.460Z,4.19
2019-03-06T02:09:18.494Z,4.18
2019-03-06T02:10:18.431Z,4.22
2019-03-06T02:11:18.431Z,4.25
2019-03-06T02:12:18.422Z,4.21
2019-03-06T02:13:18.734Z,4.15
2019-03-06T02:14:18.402Z,4.19
2019-03-06T02:15:18.427Z,4.15
2019-03-06T02:16:18.378Z,4.10
2019-03-06T02:17:18.412Z,4.16
2019-03-06T02:18:18.354Z,4.18
2019-03-06T02:19:18.372Z,4.24
2019-03-06T02:20:18.660Z,4.16
2019-03-06T02:21:18.371Z,4.25
2019-03-06T02:22:18.327Z,4.16
2019-03-06T02:23:18.303Z,4.16
2019-03-06T02:24:18.298Z,4.15
2019-03-06T02:25:18.289Z,4.24
2019-03-06T02:26:18.274Z,4.18
2019-03-06T02:27:18.583Z,4.15
2019-03-06T02:28:18.243Z,4.25
2019-03-06T02:29:18.257Z,4.21
2019-03-06T02:30:18.228Z,4.16
2019-03-06T02:31:18.228Z,4.26
2019-03-06T02:32:18.213Z,4.19
2019-03-06T02:33:18.221Z,4.21
2019-03-06T02:34:18.489Z,4.21
2019-03-06T02:35:18.179Z,4.18
2019-03-06T02:36:18.168Z,4.12
2019-03-06T02:37:18.173Z,4.10
2019-03-06T02:38:18.167Z,4.15
2019-03-06T02:39:18.219Z,4.21
2019-03-06T02:40:18.124Z,4.18
2019-03-06T02:41:18.462Z,4.12
2019-03-06T02:42:18.124Z,4.14
2019-03-06T02:43:18.089Z,4.10
2019-03-06T02:44:18.085Z,4.07
2019-03-06T02:45:18.143Z,4.15
2019-03-06T02:46:18.070Z,4.16
2019-03-06T02:47:18.053Z,4.14
2019-03-06T02:48:18.357Z,4.16
2019-03-06T02:49:18.041Z,4.18
2019-03-06T02:50:18.036Z,4.16
2019-03-06T02:51:18.045Z,4.21
2019-03-06T02:52:17.997Z,4.19
2019-03-06T02:53:17.991Z,4.18
2019-03-06T02:54:18.938Z,4.19
2019-03-06T02:55:18.299Z,4.15
2019-03-06T02:56:17.962Z,4.21
2019-03-06T02:57:18.003Z,4.18
2019-03-06T02:58:17.952Z,4.25
2019-03-06T02:59:17.920Z,4.29
2019-03-06T03:01:44.878Z,4.29
2019-03-06T03:02:44.818Z,4.26
2019-03-06T03:03:44.792Z,4.32
2019-03-06T03:04:44.782Z,4.29
2019-03-06T03:05:45.332Z,4.19
2019-03-06T03:06:44.755Z,4.25
2019-03-06T03:07:45.225Z,4.28
2019-03-06T03:08:44.731Z,4.32
2019-03-06T03:09:44.751Z,4.33
2019-03-06T03:10:44.702Z,4.32
2019-03-06T03:11:44.705Z,4.28
2019-03-06T03:12:44.710Z,4.33
2019-03-06T03:13:44.712Z,4.32
2019-03-06T03:14:44.979Z,4.28
2019-03-06T03:15:44.660Z,4.34
2019-03-06T03:16:44.657Z,4.37
2019-03-06T03:17:44.655Z,4.37
2019-03-06T03:18:44.655Z,4.34
2019-03-06T03:19:44.656Z,4.40
2019-03-06T03:20:44.624Z,4.37
2019-03-06T03:21:45.011Z,4.43
2019-03-06T03:22:44.582Z,4.34
2019-03-06T03:23:44.627Z,4.39
2019-03-06T03:24:44.569Z,4.36
2019-03-06T03:25:44.578Z,4.40
2019-03-06T03:26:44.554Z,4.43
2019-03-06T03:27:44.554Z,4.46
2019-03-06T03:28:44.860Z,4.50
2019-03-06T03:29:44.573Z,4.55
2019-03-06T03:30:44.521Z,4.51
2019-03-06T03:31:44.517Z,4.57
2019-03-06T03:32:44.475Z,4.55
2019-03-06T03:33:44.463Z,4.59
2019-03-06T03:34:44.468Z,4.52
2019-03-06T03:35:44.742Z,4.65
2019-03-06T03:36:44.464Z,4.61
2019-03-06T03:37:44.489Z,4.57
2019-03-06T03:38:44.410Z,4.59
2019-03-06T03:39:44.407Z,4.67
2019-03-06T03:40:44.402Z,4.61
2019-03-06T03:41:44.413Z,4.67
2019-03-06T03:42:44.732Z,4.73
2019-03-06T03:43:44.417Z,4.70
2019-03-06T03:44:44.345Z,4.72
2019-03-06T03:45:44.345Z,4.75
2019-03-06T03:46:44.363Z,4.75
2019-03-06T03:47:44.389Z,4.70
2019-03-06T03:48:44.307Z,4.76
2019-03-06T03:49:44.692Z,4.72
2019-03-06T03:50:44.289Z,4.77
2019-03-06T03:51:44.276Z,4.75
2019-03-06T03:52:44.287Z,4.83
2019-03-06T03:53:44.264Z,4.73
2019-03-06T03:54:44.254Z,4.76
2019-03-06T03:55:44.312Z,4.86
2019-03-06T03:56:44.520Z,4.89
2019-03-06T03:57:44.235Z,4.86
2019-03-06T03:58:44.843Z,4.89
2019-03-06T03:59:44.214Z,4.89
2019-03-06T04:00:44.198Z,4.89
2019-03-06T04:01:44.262Z,4.92
2019-03-06T04:02:44.164Z,4.94
2019-03-06T04:03:44.475Z,4.95
2019-03-06T04:04:44.132Z,5.02
2019-03-06T04:05:44.146Z,4.96
2019-03-06T04:06:44.148Z,4.94
2019-03-06T04:07:44.200Z,4.98
2019-03-06T04:08:44.108Z,5.04
2019-03-06T04:09:44.284Z,4.96
2019-03-06T04:10:44.384Z,4.95
2019-03-06T04:11:44.063Z,5.04
2019-03-06T04:12:44.073Z,4.99
2019-03-06T04:13:44.326Z,4.98
2019-03-06T04:14:44.038Z,4.96
2019-03-06T04:15:44.072Z,4.98
2019-03-06T04:16:44.031Z,4.98
2019-03-06T04:17:44.357Z,4.94
2019-03-06T04:18:44.077Z,5.01
2019-03-06T04:19:44.013Z,5.04
2019-03-06T04:20:43.980Z,5.04
2019-03-06T04:21:43.980Z,5.12
2019-03-06T04:22:43.999Z,5.01
2019-03-06T04:23:43.948Z,5.07
2019-03-06T04:24:44.247Z,5.05
2019-03-06T04:25:43.972Z,5.04
2019-03-06T04:26:43.941Z,5.07
2019-03-06T04:27:43.932Z,5.02
2019-03-06T04:28:43.896Z,5.05
2019-03-06T04:29:43.897Z,5.04
2019-03-06T04:30:43.881Z,5.09
2019-03-06T04:31:44.179Z,5.10
2019-03-06T04:32:43.866Z,5.13
2019-03-06T04:33:43.869Z,5.17
2019-03-06T04:34:43.832Z,5.19
2019-03-06T04:35:43.841Z,5.19
2019-03-06T04:36:43.826Z,5.16
2019-03-06T04:37:44.167Z,5.14
2019-03-06T04:38:43.970Z,5.12
2019-03-06T04:39:43.782Z,5.13
2019-03-06T04:40:43.773Z,5.17
2019-03-06T04:41:43.757Z,5.13
2019-03-06T04:42:43.768Z,5.17
2019-03-06T04:43:43.784Z,5.12
2019-03-06T04:44:44.064Z,5.04
2019-03-06T04:45:43.733Z,5.13
2019-03-06T04:46:43.708Z,5.20
2019-03-06T04:47:43.717Z,5.16
2019-03-06T04:48:43.704Z,5.19
2019-03-06T04:49:52.441Z,5.20
2019-03-06T04:50:44.686Z,5.20
2019-03-06T04:51:43.959Z,5.23
2019-03-06T04:52:43.651Z,5.22
2019-03-06T04:53:43.641Z,5.17
2019-03-06T04:54:43.643Z,5.16
2019-03-06T04:55:43.650Z,5.13
2019-03-06T04:56:43.634Z,5.16
2019-03-06T04:57:43.613Z,5.19
2019-03-06T04:58:43.596Z,5.22
2019-03-06T04:59:43.576Z,5.17
2019-03-06T05:00:43.571Z,5.17
2019-03-06T05:01:43.615Z,5.19
2019-03-06T05:02:43.537Z,5.25
2019-03-06T05:03:43.546Z,5.31
2019-03-06T05:04:43.839Z,5.17
2019-03-06T05:05:43.512Z,5.22
2019-03-06T05:06:44.313Z,5.20
2019-03-06T05:07:43.538Z,5.28
2019-03-06T05:08:43.489Z,5.25
2019-03-06T05:09:43.486Z,5.32
2019-03-06T05:10:43.454Z,5.32
2019-03-06T05:11:43.458Z,5.46
2019-03-06T05:12:43.457Z,5.49
2019-03-06T05:13:43.462Z,5.45
2019-03-06T05:14:43.423Z,5.38
2019-03-06T05:15:43.418Z,5.49
2019-03-06T05:16:43.707Z,5.50
2019-03-06T05:17:43.393Z,5.45
2019-03-06T05:18:43.383Z,5.41
2019-03-06T05:19:43.414Z,5.31
2019-03-06T05:20:43.371Z,5.31
2019-03-06T05:21:43.341Z,5.30
2019-03-06T05:22:43.333Z,5.28
2019-03-06T05:23:43.382Z,5.32
2019-03-06T05:24:43.408Z,5.38
2019-03-06T05:25:43.358Z,5.28
2019-03-06T05:26:43.295Z,5.31
2019-03-06T05:27:43.272Z,5.35
2019-03-06T05:28:43.592Z,5.27
2019-03-06T05:29:43.256Z,5.31
2019-03-06T05:30:43.282Z,5.22
2019-03-06T05:31:43.344Z,5.20
2019-03-06T05:32:43.227Z,5.16
2019-03-06T05:33:43.224Z,5.25
2019-03-06T05:34:43.209Z,5.25
2019-03-06T05:35:43.532Z,5.19
2019-03-06T05:36:43.193Z,5.23
2019-03-06T05:37:43.235Z,5.14
2019-03-06T05:38:43.193Z,5.27
2019-03-06T05:39:43.166Z,5.23
2019-03-06T05:40:43.158Z,5.22
2019-03-06T05:41:43.353Z,5.32
2019-03-06T05:42:43.602Z,5.31
2019-03-06T05:43:43.329Z,5.30
2019-03-06T05:44:43.124Z,5.20
2019-03-06T05:45:43.107Z,5.28
2019-03-06T05:46:43.094Z,5.22
2019-03-06T05:47:43.142Z,5.34
2019-03-06T05:48:43.839Z,5.20
2019-03-06T05:49:44.821Z,5.23
2019-03-06T05:50:43.122Z,5.31
2019-03-06T05:51:43.142Z,5.31
2019-03-06T05:52:43.047Z,5.40
2019-03-06T05:53:43.020Z,5.35
2019-03-06T05:54:43.016Z,5.28
2019-03-06T05:55:43.027Z,5.30
2019-03-06T05:56:43.493Z,5.32
2019-03-06T05:57:42.980Z,5.31
2019-03-06T05:58:42.974Z,5.31
2019-03-06T05:59:42.949Z,5.32
2019-03-06T06:00:42.937Z,5.34
2019-03-06T06:01:43.012Z,5.32
2019-03-06T06:02:42.919Z,5.38
2019-03-06T06:03:42.947Z,5.31
2019-03-06T06:04:42.903Z,5.28
2019-03-06T06:05:42.902Z,5.35
2019-03-06T06:06:42.936Z,5.34
2019-03-06T06:07:42.941Z,5.41
2019-03-06T06:08:42.860Z,5.41
2019-03-06T06:09:42.861Z,5.35
2019-03-06T06:10:42.849Z,5.37
2019-03-06T06:11:42.843Z,5.43
2019-03-06T06:12:42.867Z,5.45
2019-03-06T06:13:42.923Z,5.46
2019-03-06T06:14:42.848Z,5.43
2019-03-06T06:15:43.207Z,5.46
2019-03-06T06:16:42.785Z,5.46
2019-03-06T06:17:42.924Z,5.55
2019-03-06T06:18:42.762Z,5.50
2019-03-06T06:19:42.872Z,5.46
2019-03-06T06:20:42.779Z,5.49
2019-03-06T06:21:42.887Z,5.50
2019-03-06T06:22:42.772Z,5.55
2019-03-06T06:23:42.702Z,5.52
2019-03-06T06:24:43.199Z,5.48
2019-03-06T06:25:42.816Z,5.55
2019-03-06T06:26:42.675Z,5.50
2019-03-06T06:27:42.658Z,5.55
2019-03-06T06:28:45.548Z,5.46
2019-03-06T06:29:42.652Z,5.57
2019-03-06T06:30:43.305Z,5.49
2019-03-06T06:31:42.660Z,5.63
2019-03-06T06:32:42.650Z,5.63
2019-03-06T06:33:42.621Z,5.68
2019-03-06T06:34:42.597Z,5.63
2019-03-06T06:35:42.596Z,5.63
2019-03-06T06:36:42.570Z,5.68
2019-03-06T06:37:42.615Z,5.68
2019-03-06T06:38:42.682Z,5.70
2019-03-06T06:39:42.956Z,5.66
2019-03-06T06:40:42.517Z,5.67
2019-03-06T06:41:42.533Z,5.71
2019-03-06T06:42:42.518Z,5.77
2019-03-06T06:43:42.530Z,5.81
2019-03-06T06:44:45.438Z,5.86
2019-03-06T06:45:42.554Z,5.89
2019-03-06T06:46:43.119Z,5.86
2019-03-06T06:47:42.483Z,5.86
2019-03-06T06:48:42.463Z,5.88
2019-03-06T06:49:42.476Z,5.88
2019-03-06T06:50:43.297Z,5.85
2019-03-06T06:51:42.410Z,5.98
2019-03-06T06:52:42.565Z,5.95
2019-03-06T06:53:42.843Z,5.89
2019-03-06T06:54:42.474Z,6.00
2019-03-06T06:55:42.445Z,6.01
2019-03-06T06:56:42.386Z,6.11
2019-03-06T06:57:42.368Z,6.03
2019-03-06T06:58:42.345Z,6.11
2019-03-06T06:59:42.330Z,6.18
2019-03-06T07:00:42.685Z,6.19
2019-03-06T07:01:42.351Z,6.18
2019-03-06T07:02:42.438Z,6.16
2019-03-06T07:03:42.289Z,6.22
2019-03-06T07:04:42.281Z,6.25
2019-03-06T07:05:42.279Z,6.30
2019-03-06T07:06:42.264Z,6.40
2019-03-06T07:07:42.781Z,6.33
2019-03-06T07:08:42.307Z,6.36
2019-03-06T07:09:42.229Z,6.40
2019-03-06T07:10:42.222Z,6.44
2019-03-06T07:11:42.775Z,6.46
2019-03-06T07:12:42.252Z,6.47
2019-03-06T07:13:42.228Z,6.46
2019-03-06T07:14:42.562Z,6.40
2019-03-06T07:15:42.186Z,6.46
2019-03-06T07:16:42.157Z,6.47
2019-03-06T07:17:42.151Z,6.46
2019-03-06T07:18:42.139Z,6.51
2019-03-06T07:19:42.182Z,6.48
2019-03-06T07:20:42.112Z,6.63
2019-03-06T07:21:42.607Z,6.69
2019-03-06T07:22:42.093Z,6.63
2019-03-06T07:23:42.783Z,6.56
2019-03-06T07:24:42.134Z,6.80
2019-03-06T07:25:42.101Z,6.73
2019-03-06T07:26:42.148Z,6.81
2019-03-06T07:27:42.045Z,6.79
2019-03-06T07:28:42.439Z,6.83
2019-03-06T07:29:42.022Z,6.94
2019-03-06T07:30:41.998Z,6.94
2019-03-06T07:31:42.312Z,6.91
2019-03-06T07:32:42.019Z,6.97
2019-03-06T07:33:41.969Z,6.94
2019-03-06T07:34:42.796Z,7.07
2019-03-06T07:35:43.321Z,7.08
2019-03-06T07:36:41.943Z,7.13
2019-03-06T07:37:41.977Z,7.20
2019-03-06T07:38:41.929Z,7.41
2019-03-06T07:39:41.964Z,7.45
2019-03-06T07:40:42.764Z,7.45
2019-03-06T07:41:41.896Z,7.56
2019-03-06T07:42:42.333Z,7.71
2019-03-06T07:43:41.965Z,7.74
2019-03-06T07:44:41.878Z,7.78
2019-03-06T07:45:42.741Z,7.84
2019-03-06T07:46:41.834Z,7.94
2019-03-06T07:47:41.826Z,7.81
2019-03-06T07:48:41.827Z,7.79
2019-03-06T07:49:45.340Z,7.84
2019-03-06T07:50:41.877Z,7.94
2019-03-06T07:51:42.008Z,7.84
2019-03-06T07:52:41.767Z,7.92
2019-03-06T07:53:41.773Z,7.99
2019-03-06T07:54:41.859Z,8.08
2019-03-06T07:55:42.257Z,8.12
2019-03-06T07:56:41.864Z,8.11
2019-03-06T07:57:42.508Z,8.12
2019-03-06T07:58:42.750Z,8.18
2019-03-06T07:59:41.876Z,8.26
2019-03-06T08:00:41.720Z,8.37
2019-03-06T08:01:41.704Z,8.39
2019-03-06T08:02:41.670Z,8.42
2019-03-06T08:03:41.665Z,8.65
2019-03-06T08:04:41.672Z,8.75
2019-03-06T08:05:41.695Z,9.12
2019-03-06T08:06:41.684Z,9.31
2019-03-06T08:07:42.838Z,9.45
2019-03-06T08:08:41.727Z,9.48
2019-03-06T08:09:41.807Z,9.40
2019-03-06T08:10:42.269Z,9.46
2019-03-06T08:11:41.618Z,9.42
2019-03-06T08:12:41.604Z,9.34
2019-03-06T08:13:41.608Z,9.39
2019-03-06T08:14:41.758Z,9.32
2019-03-06T08:15:41.548Z,9.45
2019-03-06T08:16:41.543Z,9.48
2019-03-06T08:17:41.544Z,9.89
2019-03-06T08:18:41.589Z,9.97
2019-03-06T08:19:41.928Z,10.03
2019-03-06T08:20:41.497Z,10.22
2019-03-06T08:21:41.518Z,10.21
2019-03-06T08:22:41.478Z,9.86
2019-03-06T08:23:41.830Z,10.17
2019-03-06T08:24:41.454Z,10.24
2019-03-06T08:25:41.488Z,10.56
2019-03-06T08:26:41.439Z,10.40
2019-03-06T08:27:41.468Z,10.47
2019-03-06T08:28:41.436Z,10.37
2019-03-06T08:29:41.453Z,10.17
2019-03-06T08:30:43.300Z,9.99
2019-03-06T08:31:45.132Z,9.85
2019-03-06T08:32:41.376Z,9.78
2019-03-06T08:33:41.403Z,9.67
2019-03-06T08:34:41.427Z,9.39
2019-03-06T08:35:41.373Z,9.46
2019-03-06T08:36:41.320Z,9.43
2019-03-06T08:37:41.842Z,9.49
2019-03-06T08:38:41.329Z,9.40
2019-03-06T08:39:41.316Z,9.45
2019-03-06T08:40:41.287Z,9.40
2019-03-06T08:41:41.308Z,9.43
2019-03-06T08:42:41.249Z,9.42
2019-03-06T08:43:41.849Z,9.43
2019-03-06T08:44:41.296Z,9.50
2019-03-06T08:45:41.266Z,9.56
2019-03-06T08:46:41.241Z,9.58
2019-03-06T08:47:41.201Z,9.56
2019-03-06T08:48:41.185Z,9.60
2019-03-06T08:49:41.219Z,9.73
2019-03-06T08:50:41.670Z,9.76
2019-03-06T08:51:41.166Z,9.64
2019-03-06T08:52:41.191Z,9.53
2019-03-06T08:53:41.133Z,9.61
2019-03-06T08:54:41.164Z,9.56
2019-03-06T08:55:41.173Z,9.60
2019-03-06T08:56:41.103Z,9.43
2019-03-06T08:57:41.117Z,9.49
2019-03-06T08:58:41.093Z,9.58
2019-03-06T08:59:41.788Z,9.71
2019-03-06T09:00:41.144Z,9.70
2019-03-06T09:01:42.886Z,9.63
2019-03-06T09:02:41.053Z,9.60
2019-03-06T09:03:41.507Z,9.48
2019-03-06T09:04:41.779Z,9.46
2019-03-06T09:05:41.025Z,9.45
2019-03-06T09:06:41.483Z,9.60
2019-03-06T09:07:41.126Z,9.64
2019-03-06T09:08:41.009Z,9.57
2019-03-06T09:09:40.970Z,9.45
2019-03-06T09:10:41.781Z,9.46
2019-03-06T09:11:40.965Z,9.52
2019-03-06T09:12:40.947Z,9.58
2019-03-06T09:13:41.047Z,9.56
2019-03-06T09:14:40.954Z,9.67
2019-03-06T09:15:40.916Z,9.75
2019-03-06T09:16:40.923Z,9.82
2019-03-06T09:17:40.884Z,9.75
2019-03-06T09:18:41.739Z,9.66
2019-03-06T09:19:41.064Z,9.85
2019-03-06T09:20:41.166Z,9.88
2019-03-06T09:21:42.254Z,9.99
2019-03-06T09:22:42.226Z,9.85
2019-03-06T09:23:40.827Z,9.70
2019-03-06T09:24:40.823Z,9.81
2019-03-06T09:25:40.889Z,9.88
2019-03-06T09:26:40.788Z,9.88
2019-03-06T09:27:41.752Z,9.99
2019-03-06T09:28:40.771Z,10.09
2019-03-06T09:29:40.775Z,10.04
2019-03-06T09:30:40.763Z,10.09
2019-03-06T09:31:40.768Z,10.21
2019-03-06T09:32:40.723Z,10.14
2019-03-06T09:33:40.804Z,10.04
2019-03-06T09:34:41.343Z,9.88
2019-03-06T09:35:40.709Z,9.75
2019-03-06T09:36:40.742Z,9.79
2019-03-06T09:37:40.759Z,9.73
2019-03-06T09:38:40.718Z,9.70
2019-03-06T09:39:40.824Z,9.68
2019-03-06T09:40:41.155Z,9.75
2019-03-06T09:41:40.647Z,9.91
2019-03-06T09:42:40.632Z,9.78
2019-03-06T09:43:40.662Z,9.73
2019-03-06T09:44:40.689Z,9.66
2019-03-06T09:45:40.614Z,9.63
2019-03-06T09:46:40.668Z,9.60
2019-03-06T09:47:40.735Z,9.71
2019-03-06T09:48:40.574Z,9.79
2019-03-06T09:49:40.622Z,9.78
2019-03-06T09:50:40.556Z,9.89
2019-03-06T09:51:40.544Z,9.89
2019-03-06T09:52:40.526Z,9.68
2019-03-06T09:53:40.677Z,9.82
2019-03-06T09:54:40.529Z,9.86
2019-03-06T09:55:40.558Z,9.83
2019-03-06T09:56:41.360Z,9.86
2019-03-06T09:57:40.507Z,10.00
2019-03-06T09:58:41.263Z,10.15
2019-03-06T09:59:40.489Z,10.32
2019-03-06T10:00:40.466Z,10.40
2019-03-06T10:01:41.131Z,10.52
2019-03-06T10:02:40.441Z,10.53
2019-03-06T10:03:40.417Z,10.56
2019-03-06T10:04:40.391Z,10.51
2019-03-06T10:05:40.407Z,10.34
2019-03-06T10:06:40.396Z,10.40
2019-03-06T10:07:40.432Z,10.44
2019-03-06T10:08:40.382Z,10.52
2019-03-06T10:09:40.414Z,10.51
2019-03-06T10:10:46.421Z,10.58
2019-03-06T10:11:41.336Z,10.63
2019-03-06T10:12:47.252Z,10.65
2019-03-06T10:13:42.138Z,10.62
2019-03-06T10:14:40.319Z,10.53
2019-03-06T10:15:40.284Z,10.34
2019-03-06T10:16:48.589Z,10.42
2019-03-06T10:17:41.265Z,10.52
2019-03-06T10:18:40.781Z,10.46
2019-03-06T10:19:40.261Z,10.43
2019-03-06T10:20:40.263Z,10.46
2019-03-06T10:21:40.211Z,10.56
2019-03-06T10:22:40.249Z,10.60
2019-03-06T10:23:40.612Z,10.71
2019-03-06T10:24:40.288Z,10.62
2019-03-06T10:25:40.210Z,10.74
2019-03-06T10:26:40.169Z,10.76
2019-03-06T10:27:40.169Z,10.89
2019-03-06T10:28:40.160Z,10.91
2019-03-06T10:29:40.131Z,10.99
2019-03-06T10:30:40.151Z,11.10
2019-03-06T10:31:40.162Z,11.19
2019-03-06T10:32:40.124Z,11.11
2019-03-06T10:33:40.842Z,11.13
2019-03-06T10:34:40.187Z,11.17
2019-03-06T10:35:40.123Z,11.14
2019-03-06T10:36:40.768Z,11.17
2019-03-06T10:37:40.106Z,11.28
2019-03-06T10:38:40.763Z,11.24
2019-03-06T10:39:40.777Z,11.19
2019-03-06T10:40:40.764Z,11.16
2019-03-06T10:41:40.851Z,11.20
2019-03-06T10:42:40.007Z,11.28
2019-03-06T10:43:48.875Z,11.31
2019-03-06T10:44:40.973Z,11.34
2019-03-06T10:45:41.931Z,11.21
2019-03-06T10:46:39.972Z,11.24
2019-03-06T10:47:39.982Z,11.24
2019-03-06T10:48:41.164Z,11.27
2019-03-06T10:49:41.183Z,11.41
2019-03-06T10:50:39.948Z,11.44
2019-03-06T10:51:39.959Z,11.65
2019-03-06T10:52:39.965Z,11.78
2019-03-06T10:53:41.418Z,11.89
2019-03-06T10:54:44.715Z,11.94
2019-03-06T10:55:40.908Z,11.97
2019-03-06T10:56:40.744Z,12.11
2019-03-06T10:57:39.830Z,12.21
2019-03-06T10:58:39.908Z,12.38
2019-03-06T10:59:39.854Z,12.21
2019-03-06T11:00:39.809Z,12.20
2019-03-06T11:01:39.915Z,12.33
2019-03-06T11:02:39.842Z,12.38
2019-03-06T11:03:39.778Z,12.31
2019-03-06T11:04:39.758Z,12.38
2019-03-06T11:05:39.764Z,12.38
2019-03-06T11:06:39.742Z,12.49
2019-03-06T11:07:39.782Z,12.64
2019-03-06T11:08:40.314Z,12.67
2019-03-06T11:09:39.796Z,12.62
2019-03-06T11:10:40.282Z,12.77
2019-03-06T11:11:39.705Z,13.09
2019-03-06T11:12:40.163Z,12.79
2019-03-06T11:13:39.715Z,12.95
2019-03-06T11:14:39.725Z,13.29
2019-03-06T11:15:44.282Z,13.62
2019-03-06T11:16:39.651Z,13.87
2019-03-06T11:17:40.643Z,14.06
2019-03-06T11:18:39.636Z,14.10
2019-03-06T11:19:40.287Z,14.10
2019-03-06T11:20:40.746Z,14.29
2019-03-06T11:21:39.586Z,14.16
2019-03-06T11:22:39.581Z,13.95
2019-03-06T11:23:39.591Z,13.58
2019-03-06T11:24:39.581Z,13.58
2019-03-06T11:25:40.824Z,13.21
2019-03-06T11:26:39.568Z,13.29
2019-03-06T11:27:39.524Z,13.11
2019-03-06T11:28:40.567Z,13.21
2019-03-06T11:29:39.535Z,13.44
2019-03-06T11:30:39.525Z,13.76
2019-03-06T11:31:39.529Z,13.83
2019-03-06T11:32:39.507Z,13.83
2019-03-06T11:33:39.572Z,13.47
2019-03-06T11:34:39.481Z,13.25
2019-03-06T11:35:39.464Z,12.96
2019-03-06T11:36:39.449Z,13.07
2019-03-06T11:37:40.926Z,13.07
2019-03-06T11:38:39.439Z,13.18
2019-03-06T11:39:39.404Z,13.21
2019-03-06T11:40:39.473Z,13.27
2019-03-06T11:41:39.604Z,13.47
2019-03-06T11:42:40.232Z,14.09
2019-03-06T11:43:39.718Z,14.29
2019-03-06T11:44:39.732Z,14.34
2019-03-06T11:45:39.359Z,14.24
2019-03-06T11:46:39.345Z,14.20
2019-03-06T11:47:44.268Z,14.75
2019-03-06T11:48:40.438Z,16.00
2019-03-06T11:49:39.328Z,15.82
2019-03-06T11:50:41.143Z,16.22
2019-03-06T11:51:39.314Z,16.60
2019-03-06T11:52:39.258Z,17.20
2019-03-06T11:53:39.338Z,17.18
2019-03-06T11:54:39.247Z,16.38
2019-03-06T11:55:39.764Z,15.79
2019-03-06T11:56:39.384Z,15.30
2019-03-06T11:57:39.210Z,15.17
2019-03-06T11:58:39.790Z,15.46
2019-03-06T11:59:39.378Z,15.82
2019-03-06T12:00:39.262Z,16.22
2019-03-06T12:01:47.549Z,16.58
2019-03-06T12:02:40.193Z,16.60
2019-03-06T12:03:39.212Z,16.50
2019-03-06T12:04:40.161Z,16.00
2019-03-06T12:05:39.244Z,15.93
2019-03-06T12:06:39.502Z,15.61
2019-03-06T12:07:39.839Z,15.35
2019-03-06T12:08:45.550Z,15.33
2019-03-06T12:09:40.896Z,15.49
2019-03-06T12:10:39.772Z,15.85
2019-03-06T12:11:39.094Z,15.63
2019-03-06T12:12:39.763Z,15.17
2019-03-06T12:13:39.173Z,15.49
2019-03-06T12:14:39.481Z,15.78
2019-03-06T12:15:39.118Z,15.66
2019-03-06T12:16:41.756Z,15.54
2019-03-06T12:17:39.760Z,15.81
2019-03-06T12:18:38.992Z,16.44
2019-03-06T12:19:39.079Z,16.06
2019-03-06T12:20:39.013Z,16.25
2019-03-06T12:21:40.786Z,16.34
2019-03-06T12:22:41.779Z,16.25
2019-03-06T12:23:39.791Z,16.42
2019-03-06T12:24:39.768Z,16.04
2019-03-06T12:25:38.985Z,15.60
2019-03-06T12:26:39.344Z,15.27
2019-03-06T12:27:38.963Z,14.84
2019-03-06T12:28:38.887Z,14.78
2019-03-06T12:29:38.999Z,14.71
2019-03-06T12:30:39.375Z,14.47
2019-03-06T12:31:38.867Z,14.39
2019-03-06T12:32:38.876Z,14.32
2019-03-06T12:33:39.208Z,14.20
2019-03-06T12:34:38.815Z,14.24
2019-03-06T12:35:38.811Z,14.17
2019-03-06T12:36:39.026Z,14.29
2019-03-06T12:37:46.703Z,14.24
2019-03-06T12:38:40.270Z,14.12
2019-03-06T12:39:40.387Z,14.12
2019-03-06T12:40:38.779Z,14.12
2019-03-06T12:41:39.762Z,14.14
2019-03-06T12:42:38.839Z,14.06
2019-03-06T12:43:38.792Z,13.99
2019-03-06T12:44:38.779Z,13.95
2019-03-06T12:45:38.709Z,13.94
2019-03-06T12:46:39.703Z,13.80
2019-03-06T12:47:38.710Z,13.88
2019-03-06T12:48:38.727Z,13.92
2019-03-06T12:49:38.661Z,13.83
2019-03-06T12:50:38.671Z,13.89
2019-03-06T12:51:39.150Z,13.83
2019-03-06T12:52:38.770Z,13.91
2019-03-06T12:53:39.203Z,13.92
2019-03-06T12:54:38.685Z,14.04
2019-03-06T12:55:38.619Z,14.02
2019-03-06T12:56:38.601Z,13.98
2019-03-06T12:57:38.573Z,14.09
2019-03-06T12:58:38.562Z,13.98
2019-03-06T12:59:38.577Z,14.07
2019-03-06T13:00:38.572Z,14.14
2019-03-06T13:01:39.237Z,14.12
2019-03-06T13:02:40.285Z,14.12
2019-03-06T13:03:38.581Z,14.16
2019-03-06T13:04:38.543Z,14.16
2019-03-06T13:05:39.187Z,14.19
2019-03-06T13:06:39.261Z,14.17
2019-03-06T13:07:38.523Z,14.24
2019-03-06T13:08:38.454Z,14.10
2019-03-06T13:09:38.442Z,14.19
2019-03-06T13:10:38.433Z,14.21
2019-03-06T13:11:38.459Z,14.16
2019-03-06T13:12:38.603Z,14.16